createdAt,value
2022-12-17T00:02:09.486Z,17.30
2022-12-17T00:05:30.017Z,16.70
2022-12-17T00:08:50.334Z,16.50
2022-12-17T00:12:10.681Z,16.10
2022-12-17T00:15:30.981Z,15.40
2022-12-17T00:18:51.176Z,14.80
2022-12-17T00:22:12.344Z,16.50
2022-12-17T00:25:32.789Z,17.30
2022-12-17T00:28:53.083Z,16.00
2022-12-17T00:32:15.362Z,18.10
2022-12-17T00:35:35.625Z,15.50
2022-12-17T00:38:56.061Z,13.50
2022-12-17T00:42:17.142Z,14.90
2022-12-17T00:45:37.291Z,17.10
2022-12-17T00:48:57.630Z,18.50
2022-12-17T00:52:17.940Z,17.50
2022-12-17T00:55:38.427Z,19.00
2022-12-17T00:58:58.830Z,18.50
2022-12-17T01:02:20.783Z,18.00
2022-12-17T01:05:41.467Z,18.40
2022-12-17T01:09:01.698Z,17.50
2022-12-17T01:12:22.219Z,18.60
2022-12-17T01:15:42.662Z,18.00
2022-12-17T01:19:02.860Z,17.60
2022-12-17T01:22:23.462Z,18.70
2022-12-17T01:25:43.762Z,18.20
2022-12-17T01:29:04.259Z,19.00
2022-12-17T01:32:24.579Z,18.90
2022-12-17T01:35:45.119Z,16.30
2022-12-17T01:39:05.175Z,19.80
2022-12-17T01:42:30.156Z,17.70
2022-12-17T01:45:55.115Z,18.00
2022-12-17T01:49:15.357Z,18.10
2022-12-17T01:52:50.731Z,17.70
2022-12-17T01:56:12.541Z,18.30
2022-12-17T01:59:33.021Z,17.80
2022-12-17T02:02:53.563Z,16.40
2022-12-17T02:06:33.806Z,17.40
2022-12-17T02:09:57.148Z,18.00
2022-12-17T02:13:23.204Z,20.20
2022-12-17T02:16:50.912Z,16.50
2022-12-17T02:20:14.345Z,15.60
2022-12-17T02:23:48.319Z,17.80
2022-12-17T02:27:24.262Z,16.20
2022-12-17T02:30:44.622Z,16.20
2022-12-17T02:34:05.841Z,15.10
2022-12-17T02:37:26.751Z,14.20
2022-12-17T02:40:46.949Z,14.60
2022-12-17T02:44:07.652Z,14.30
2022-12-17T02:47:29.016Z,15.30
2022-12-17T02:50:49.884Z,15.30
2022-12-17T02:54:12.535Z,13.80
2022-12-17T02:57:32.731Z,12.30
2022-12-17T03:00:52.745Z,12.50
2022-12-17T03:04:13.322Z,12.40
2022-12-17T03:07:33.760Z,13.60
2022-12-17T03:10:54.079Z,12.40
2022-12-17T03:14:14.621Z,11.80
2022-12-17T03:17:35.019Z,10.80
2022-12-17T03:20:56.803Z,13.80
2022-12-17T03:24:16.911Z,11.90
2022-12-17T03:27:37.247Z,13.20
2022-12-17T03:30:57.767Z,12.80
2022-12-17T03:34:17.916Z,13.10
2022-12-17T03:37:38.276Z,12.60
2022-12-17T03:40:58.526Z,13.20
2022-12-17T03:44:19.236Z,12.00
2022-12-17T03:47:39.427Z,12.30
2022-12-17T03:50:59.622Z,12.50
2022-12-17T03:54:20.006Z,12.10
2022-12-17T03:57:40.420Z,11.90
2022-12-17T04:01:00.796Z,11.30
2022-12-17T04:04:20.762Z,12.00
2022-12-17T04:07:41.309Z,12.60
2022-12-17T04:11:01.636Z,12.10
2022-12-17T04:14:21.702Z,12.80
2022-12-17T04:17:41.659Z,12.90
2022-12-17T04:21:02.248Z,12.60
2022-12-17T04:24:22.674Z,11.50
2022-12-17T04:27:43.205Z,11.80
2022-12-17T04:31:03.748Z,13.10
2022-12-17T04:34:23.733Z,13.90
2022-12-17T04:37:44.031Z,11.40
2022-12-17T04:41:04.476Z,10.50
2022-12-17T04:44:24.677Z,10.80
2022-12-17T04:47:44.962Z,10.20
2022-12-17T04:51:05.572Z,11.40
2022-12-17T04:54:26.072Z,11.20
2022-12-17T04:57:46.517Z,11.60
2022-12-17T05:01:06.809Z,11.50
2022-12-17T05:04:27.370Z,11.50
2022-12-17T05:07:47.569Z,10.20
2022-12-17T05:11:07.666Z,10.40
2022-12-17T05:14:27.947Z,9.90
2022-12-17T05:17:48.351Z,11.70
2022-12-17T05:21:08.664Z,10.90
2022-12-17T05:24:29.049Z,11.80
2022-12-17T05:27:49.547Z,11.50
2022-12-17T05:31:10.120Z,10.70
2022-12-17T05:34:31.898Z,10.60
2022-12-17T05:37:52.181Z,12.20
2022-12-17T05:41:15.241Z,11.20
2022-12-17T05:44:35.434Z,11.10
2022-12-17T05:47:55.934Z,10.70
2022-12-17T05:51:16.232Z,10.70
2022-12-17T05:54:36.586Z,10.50
2022-12-17T05:57:56.950Z,10.30
2022-12-17T06:01:18.395Z,10.50
2022-12-17T06:04:39.016Z,11.80
2022-12-17T06:07:59.659Z,10.00
2022-12-17T06:11:19.943Z,9.40
2022-12-17T06:14:40.241Z,10.60
2022-12-17T06:18:00.483Z,10.70
2022-12-17T06:21:20.641Z,9.70
2022-12-17T06:24:45.703Z,10.40
2022-12-17T06:28:06.558Z,10.80
2022-12-17T06:31:27.117Z,10.10
2022-12-17T06:34:47.398Z,10.20
2022-12-17T06:38:07.823Z,9.80
2022-12-17T06:41:27.946Z,9.00
2022-12-17T06:44:48.450Z,8.50
2022-12-17T06:48:08.544Z,7.60
2022-12-17T06:51:28.994Z,7.40
2022-12-17T06:54:49.232Z,7.50
2022-12-17T06:58:14.469Z,7.50
2022-12-17T07:01:35.200Z,8.00
2022-12-17T07:04:55.521Z,11.20
2022-12-17T07:08:18.923Z,11.40
2022-12-17T07:11:39.120Z,10.80
2022-12-17T07:14:59.206Z,10.70
2022-12-17T07:18:30.663Z,14.20
2022-12-17T07:21:51.142Z,17.30
2022-12-17T07:25:11.563Z,13.60
2022-12-17T07:28:32.701Z,14.20
2022-12-17T07:32:10.037Z,10.90
2022-12-17T07:35:30.230Z,9.50
2022-12-17T07:38:50.976Z,9.90
2022-12-17T07:42:11.228Z,9.00
2022-12-17T07:45:31.592Z,8.30
2022-12-17T07:48:51.809Z,8.40
2022-12-17T07:52:12.504Z,9.10
2022-12-17T07:55:32.811Z,12.60
2022-12-17T07:58:53.266Z,13.80
2022-12-17T08:02:13.711Z,11.80
2022-12-17T08:05:34.359Z,12.60
2022-12-17T08:08:54.568Z,12.40
2022-12-17T08:12:14.762Z,12.80
2022-12-17T08:15:35.248Z,12.00
2022-12-17T08:18:55.662Z,12.60
2022-12-17T08:22:15.711Z,13.70
2022-12-17T08:25:35.851Z,13.50
2022-12-17T08:28:56.045Z,14.00
2022-12-17T08:32:17.562Z,10.50
2022-12-17T08:35:37.675Z,11.20
2022-12-17T08:38:57.949Z,10.80
2022-12-17T08:42:18.096Z,12.20
2022-12-17T08:45:38.203Z,12.20
2022-12-17T08:48:58.531Z,14.50
2022-12-17T08:52:18.831Z,14.10
2022-12-17T08:55:39.067Z,14.00
2022-12-17T08:58:59.519Z,12.00
2022-12-17T09:02:20.148Z,14.20
2022-12-17T09:05:40.568Z,13.50
2022-12-17T09:09:00.603Z,13.40
2022-12-17T09:12:21.216Z,14.20
2022-12-17T09:15:41.549Z,13.70
2022-12-17T09:19:01.617Z,12.40
2022-12-17T09:22:22.071Z,12.90
2022-12-17T09:25:42.247Z,14.30
2022-12-17T09:29:02.806Z,13.80
2022-12-17T09:32:23.167Z,13.90
2022-12-17T09:35:43.501Z,13.60
2022-12-17T09:39:03.489Z,11.30
2022-12-17T09:42:46.758Z,10.60
2022-12-17T09:46:13.595Z,9.60
2022-12-17T09:49:37.230Z,9.70
2022-12-17T09:56:17.935Z,10.70
2022-12-17T09:59:38.470Z,10.80
2022-12-17T10:02:58.831Z,11.10
2022-12-17T10:06:22.829Z,10.30
2022-12-17T10:09:44.449Z,10.40
2022-12-17T10:13:04.922Z,11.30
2022-12-17T10:16:57.815Z,10.60
2022-12-17T10:20:18.116Z,12.70
2022-12-17T10:23:56.722Z,11.80
2022-12-17T10:27:16.870Z,12.50
2022-12-17T10:30:37.295Z,11.90
2022-12-17T10:33:58.661Z,11.80
2022-12-17T10:37:19.252Z,13.00
2022-12-17T10:40:43.065Z,12.10
2022-12-17T10:44:03.334Z,12.60
2022-12-17T10:47:23.734Z,15.70
2022-12-17T10:50:43.978Z,12.80
2022-12-17T10:54:07.715Z,10.50
2022-12-17T10:57:39.055Z,11.10
2022-12-17T11:00:59.743Z,11.90
2022-12-17T11:04:20.031Z,13.00
2022-12-17T11:07:40.476Z,4.90
2022-12-17T11:11:01.373Z,2.50
2022-12-17T11:14:24.993Z,2.30
2022-12-17T11:17:45.450Z,1.80
2022-12-17T11:21:13.683Z,1.70
2022-12-17T11:24:38.013Z,2.00
2022-12-17T11:28:04.260Z,1.80
2022-12-17T11:31:37.093Z,2.00
2022-12-17T11:35:03.763Z,1.70
2022-12-17T11:38:39.841Z,2.40
2022-12-17T11:42:11.573Z,1.50
2022-12-17T11:45:34.944Z,1.30
2022-12-17T11:48:55.391Z,1.60
2022-12-17T11:52:35.623Z,2.10
2022-12-17T11:55:59.943Z,1.50
2022-12-17T11:59:23.348Z,1.00
2022-12-17T12:03:04.470Z,1.60
2022-12-17T12:06:32.310Z,1.20
2022-12-17T12:10:04.393Z,1.00
2022-12-17T12:13:40.510Z,1.10
2022-12-17T12:17:15.761Z,1.20
2022-12-17T12:21:02.168Z,0.90
2022-12-17T12:24:41.565Z,0.90
2022-12-17T12:28:08.154Z,1.10
2022-12-17T12:31:46.460Z,1.00
2022-12-17T12:35:07.179Z,1.40
2022-12-17T12:38:34.997Z,1.60
2022-12-17T12:42:10.916Z,1.60
2022-12-17T12:45:34.143Z,1.70
2022-12-17T12:49:01.230Z,1.50
2022-12-17T12:52:21.843Z,1.70
2022-12-17T12:55:42.035Z,1.90
2022-12-17T12:59:02.433Z,2.00
2022-12-17T13:02:31.629Z,1.90
2022-12-17T13:05:38.794Z,2.10
2022-12-17T13:08:41.106Z,2.10
2022-12-17T13:11:47.164Z,2.30
2022-12-17T13:14:59.267Z,2.30
2022-12-17T13:18:21.049Z,1.90
2022-12-17T13:21:25.626Z,2.30
2022-12-17T13:24:27.596Z,2.00
2022-12-17T13:27:38.469Z,2.20
2022-12-17T13:30:40.029Z,2.30
2022-12-17T13:34:00.530Z,1.90
2022-12-17T13:37:16.114Z,2.20
2022-12-17T13:40:20.437Z,2.10
2022-12-17T13:43:24.816Z,2.00
2022-12-17T13:46:27.939Z,1.90
2022-12-17T13:49:30.847Z,2.10
2022-12-17T13:52:33.754Z,2.20
2022-12-17T13:55:35.196Z,2.60
2022-12-17T13:58:36.940Z,1.70
2022-12-17T14:01:46.316Z,2.30
2022-12-17T14:04:51.740Z,2.40
2022-12-17T14:07:54.530Z,2.50
2022-12-17T14:11:15.432Z,2.80
2022-12-17T14:14:29.887Z,2.60
2022-12-17T14:17:40.772Z,2.60
2022-12-17T14:20:42.734Z,2.50
2022-12-17T14:23:45.237Z,2.40
2022-12-17T14:26:47.895Z,2.50
2022-12-17T14:29:49.477Z,2.90
2022-12-17T14:32:51.326Z,3.30
2022-12-17T14:35:54.716Z,2.80
2022-12-17T14:38:59.892Z,2.80
2022-12-17T14:42:32.754Z,2.80
2022-12-17T14:45:54.292Z,3.00
2022-12-17T14:49:03.624Z,2.60
2022-12-17T14:52:14.495Z,2.50
2022-12-17T14:55:22.499Z,2.60
2022-12-17T14:58:25.285Z,2.50
2022-12-17T15:01:27.207Z,2.90
2022-12-17T15:04:30.140Z,2.90
2022-12-17T15:07:32.106Z,2.50
2022-12-17T15:10:33.662Z,2.10
2022-12-17T15:13:35.323Z,2.20
2022-12-17T15:16:36.917Z,2.60
2022-12-17T15:19:38.416Z,2.60
2022-12-17T15:22:40.157Z,2.90
2022-12-17T15:25:46.588Z,2.30
2022-12-17T15:28:48.637Z,3.00
2022-12-17T15:31:51.116Z,2.50
2022-12-17T15:34:52.777Z,2.40
2022-12-17T15:37:54.436Z,2.30
2022-12-17T15:40:59.261Z,2.40
2022-12-17T15:44:00.930Z,2.30
2022-12-17T15:47:02.524Z,2.50
2022-12-17T15:50:04.793Z,2.70
2022-12-17T15:53:06.780Z,2.20
2022-12-17T15:56:20.677Z,2.30
2022-12-17T15:59:22.541Z,2.60
2022-12-17T16:02:24.368Z,2.80
2022-12-17T16:05:26.178Z,2.40
2022-12-17T16:08:27.926Z,3.10
2022-12-17T16:11:29.586Z,3.60
2022-12-17T16:14:31.142Z,3.70
2022-12-17T16:17:32.701Z,3.90
2022-12-17T16:20:34.359Z,3.60
2022-12-17T16:23:35.927Z,4.50
2022-12-17T16:26:38.189Z,4.20
2022-12-17T16:29:39.955Z,4.80
2022-12-17T16:32:41.611Z,4.80
2022-12-17T16:35:50.452Z,5.10
2022-12-17T16:38:53.326Z,5.30
2022-12-17T16:41:54.882Z,5.80
2022-12-17T16:44:56.395Z,6.10
2022-12-17T16:47:57.896Z,4.70
2022-12-17T16:50:59.440Z,4.10
2022-12-17T16:54:03.878Z,4.70
2022-12-17T16:57:05.480Z,4.60
2022-12-17T17:00:07.607Z,4.40
2022-12-17T17:03:09.440Z,4.30
2022-12-17T17:06:11.139Z,4.30
2022-12-17T17:09:13.300Z,4.60
2022-12-17T17:12:14.857Z,4.30
2022-12-17T17:15:16.415Z,4.30
2022-12-17T17:18:24.762Z,4.30
2022-12-17T17:21:31.098Z,8.30
2022-12-17T17:24:32.641Z,6.90
2022-12-17T17:27:34.304Z,5.70
2022-12-17T17:30:35.875Z,4.40
2022-12-17T17:33:39.581Z,4.20
2022-12-17T17:36:41.813Z,4.60
2022-12-17T17:39:43.534Z,5.40
2022-12-17T17:42:50.131Z,4.50
2022-12-17T17:45:53.397Z,4.80
2022-12-17T17:48:57.104Z,5.30
2022-12-17T17:52:14.117Z,5.00
2022-12-17T17:55:15.664Z,5.50
2022-12-17T17:58:17.432Z,5.50
2022-12-17T18:01:21.006Z,5.20
2022-12-17T18:04:24.370Z,5.70
2022-12-17T18:07:27.470Z,6.50
2022-12-17T18:10:29.632Z,6.70
2022-12-17T18:13:50.424Z,5.90
2022-12-17T18:16:52.012Z,6.30
2022-12-17T18:19:53.568Z,5.90
2022-12-17T18:22:55.185Z,5.00
2022-12-17T18:25:56.743Z,4.60
2022-12-17T18:29:02.999Z,4.50
2022-12-17T18:32:05.536Z,4.50
2022-12-17T18:35:07.556Z,4.30
2022-12-17T18:38:09.111Z,4.60
2022-12-17T18:41:30.955Z,4.80
2022-12-17T18:44:33.051Z,4.60
2022-12-17T18:47:34.673Z,4.40
2022-12-17T18:50:36.220Z,4.90
2022-12-17T18:53:37.992Z,6.00
2022-12-17T18:57:00.695Z,5.00
2022-12-17T19:00:01.279Z,6.60
2022-12-17T19:03:04.532Z,6.00
2022-12-17T19:06:06.558Z,4.50
2022-12-17T19:09:08.327Z,4.20
2022-12-17T19:12:10.319Z,3.80
2022-12-17T19:15:11.893Z,4.00
2022-12-17T19:18:13.531Z,4.30
2022-12-17T19:21:22.286Z,4.10
2022-12-17T19:24:24.326Z,4.30
2022-12-17T19:27:25.941Z,4.30
2022-12-17T19:30:27.484Z,4.60
2022-12-17T19:33:28.959Z,5.40
2022-12-17T19:36:30.471Z,5.40
2022-12-17T19:39:32.178Z,6.00
2022-12-17T19:42:37.299Z,5.20
2022-12-17T19:45:39.839Z,5.40
2022-12-17T19:48:47.975Z,5.50
2022-12-17T19:51:50.277Z,6.20
2022-12-17T19:54:52.552Z,4.50
2022-12-17T19:57:54.095Z,4.70
2022-12-17T20:01:05.008Z,6.10
2022-12-17T20:04:07.052Z,6.30
2022-12-17T20:07:08.585Z,7.00
2022-12-17T20:10:10.172Z,14.30
2022-12-17T20:13:11.899Z,9.70
2022-12-17T20:16:16.594Z,11.30
2022-12-17T20:22:19.877Z,8.00
2022-12-17T20:25:21.640Z,10.30
2022-12-17T20:28:23.188Z,11.80
2022-12-17T20:31:25.211Z,13.30
2022-12-17T20:34:27.273Z,14.10
2022-12-17T20:37:28.996Z,8.80
2022-12-17T20:40:30.566Z,6.30
2022-12-17T20:43:32.081Z,5.10
2022-12-17T20:46:34.896Z,7.80
2022-12-17T20:49:36.659Z,5.20
2022-12-17T20:52:38.153Z,4.70
2022-12-17T20:55:39.773Z,4.50
2022-12-17T20:58:42.664Z,4.50
2022-12-17T21:01:44.984Z,4.00
2022-12-17T21:04:49.571Z,4.20
2022-12-17T21:07:51.840Z,4.60
2022-12-17T21:10:56.070Z,5.00
2022-12-17T21:13:57.828Z,5.60
2022-12-17T21:17:00.669Z,5.20
2022-12-17T21:20:07.373Z,6.30
2022-12-17T21:23:11.469Z,6.20
2022-12-17T21:26:15.111Z,8.20
2022-12-17T21:29:17.475Z,6.80
2022-12-17T21:32:19.090Z,6.20
2022-12-17T21:35:20.887Z,5.80
2022-12-17T21:38:22.818Z,5.20
2022-12-17T21:41:26.113Z,5.00
2022-12-17T21:44:27.767Z,5.10
2022-12-17T21:47:29.392Z,5.50
2022-12-17T21:50:31.060Z,7.50
2022-12-17T21:53:32.658Z,7.00
2022-12-17T21:56:34.223Z,5.90
2022-12-17T21:59:35.728Z,6.10
2022-12-17T22:02:37.337Z,7.10
2022-12-17T22:05:39.085Z,8.00
2022-12-17T22:08:41.277Z,7.10
2022-12-17T22:11:43.658Z,14.30
2022-12-17T22:14:46.758Z,10.80
2022-12-17T22:17:48.447Z,8.60
2022-12-17T22:20:57.068Z,8.00
2022-12-17T22:23:58.678Z,8.20
2022-12-17T22:27:00.695Z,7.60
2022-12-17T22:30:21.196Z,7.70
2022-12-17T22:34:05.686Z,7.90
2022-12-17T22:38:27.656Z,7.60
2022-12-17T22:43:37.881Z,8.10
2022-12-17T22:44:49.498Z,9.80
2022-12-17T22:46:52.801Z,9.50
2022-12-17T22:49:54.509Z,7.40
2022-12-17T22:52:56.886Z,7.20
2022-12-17T22:56:12.381Z,6.40
2022-12-17T22:59:18.741Z,5.60
2022-12-17T23:02:20.455Z,6.50
2022-12-17T23:05:22.981Z,5.90
2022-12-17T23:08:24.539Z,6.50
2022-12-17T23:11:27.119Z,6.40
2022-12-17T23:14:28.760Z,7.00
2022-12-17T23:17:30.288Z,9.40
2022-12-17T23:20:33.003Z,9.40
2022-12-17T23:23:34.767Z,9.70
2022-12-17T23:26:37.157Z,9.20
2022-12-17T23:29:38.711Z,7.80
2022-12-17T23:32:40.281Z,8.70
2022-12-17T23:35:41.870Z,9.10
2022-12-17T23:38:44.213Z,9.30
2022-12-17T23:41:45.707Z,9.30
2022-12-17T23:44:47.173Z,8.80
2022-12-17T23:47:48.677Z,8.80
2022-12-17T23:50:51.557Z,9.00
2022-12-17T23:53:53.222Z,9.50
2022-12-17T23:56:54.720Z,6.60
2022-12-17T23:59:56.167Z,6.40
